createdAt,value
2022-09-30T00:01:55.113Z,12.23
2022-09-30T00:04:25.404Z,11.95
2022-09-30T00:06:54.683Z,11.20
2022-09-30T00:09:22.406Z,10.68
2022-09-30T00:11:50.731Z,10.80
2022-09-30T00:14:20.886Z,10.52
2022-09-30T00:16:49.078Z,9.93
2022-09-30T00:19:16.451Z,9.35
2022-09-30T00:21:45.625Z,9.90
2022-09-30T00:24:12.951Z,9.10
2022-09-30T00:26:40.710Z,9.55
2022-09-30T00:29:08.133Z,9.20
2022-09-30T00:31:36.173Z,8.35
2022-09-30T00:34:11.266Z,8.95
2022-09-30T00:36:43.396Z,8.73
2022-09-30T00:39:13.889Z,9.00
2022-09-30T00:41:41.473Z,9.05
2022-09-30T00:44:47.881Z,8.75
2022-09-30T00:47:36.869Z,9.00
2022-09-30T00:50:11.950Z,8.60
2022-09-30T00:52:39.570Z,8.45
2022-09-30T00:55:11.907Z,8.70
2022-09-30T00:57:39.310Z,9.43
2022-09-30T01:00:08.579Z,10.48
2022-09-30T01:02:36.354Z,9.68
2022-09-30T01:05:04.220Z,10.05
2022-09-30T01:07:31.930Z,9.13
2022-09-30T01:09:59.301Z,10.43
2022-09-30T01:12:28.000Z,10.30
2022-09-30T01:14:56.512Z,10.20
2022-09-30T01:17:33.074Z,10.27
2022-09-30T01:20:34.540Z,9.48
2022-09-30T01:23:24.697Z,9.68
2022-09-30T01:26:07.909Z,9.38
2022-09-30T01:28:52.718Z,8.98
2022-09-30T01:31:33.178Z,8.77
2022-09-30T01:34:04.127Z,8.80
2022-09-30T01:36:42.790Z,8.15
2022-09-30T01:39:21.774Z,8.38
2022-09-30T01:41:54.566Z,7.75
2022-09-30T01:44:31.724Z,8.32
2022-09-30T01:47:03.118Z,7.75
2022-09-30T01:49:33.889Z,8.18
2022-09-30T01:52:05.378Z,8.40
2022-09-30T01:54:36.064Z,8.63
2022-09-30T01:57:06.873Z,8.73
2022-09-30T01:59:37.186Z,8.20
2022-09-30T02:02:10.224Z,8.52
2022-09-30T02:04:41.111Z,7.75
2022-09-30T02:07:10.368Z,8.70
2022-09-30T02:09:40.786Z,8.70
2022-09-30T02:12:12.797Z,8.82
2022-09-30T02:14:42.804Z,8.00
2022-09-30T02:17:16.164Z,8.32
2022-09-30T02:19:46.614Z,8.25
2022-09-30T02:22:18.567Z,8.02
2022-09-30T02:24:48.175Z,9.27
2022-09-30T02:27:19.320Z,9.10
2022-09-30T02:29:49.731Z,8.52
2022-09-30T02:32:23.345Z,9.07
2022-09-30T02:34:53.841Z,8.70
2022-09-30T02:37:25.649Z,8.50
2022-09-30T02:39:55.192Z,8.02
2022-09-30T02:42:26.697Z,8.30
2022-09-30T02:44:56.144Z,8.52
2022-09-30T02:47:28.158Z,8.73
2022-09-30T02:50:02.069Z,8.63
2022-09-30T02:55:09.228Z,8.07
2022-09-30T02:57:40.739Z,8.52
2022-09-30T03:00:12.782Z,9.23
2022-09-30T03:02:42.257Z,9.05
2022-09-30T03:05:10.986Z,8.75
2022-09-30T03:07:38.782Z,8.63
2022-09-30T03:10:13.580Z,8.27
2022-09-30T03:12:49.318Z,8.85
2022-09-30T03:15:26.508Z,7.72
2022-09-30T03:18:04.428Z,8.38
2022-09-30T03:20:38.467Z,8.40
2022-09-30T03:23:29.811Z,8.35
2022-09-30T03:26:01.681Z,8.35
2022-09-30T03:28:32.166Z,11.30
2022-09-30T03:31:10.679Z,11.80
2022-09-30T03:33:44.446Z,11.85
2022-09-30T03:36:16.671Z,11.88
2022-09-30T03:38:50.012Z,10.52
2022-09-30T03:41:23.012Z,10.48
2022-09-30T03:43:52.286Z,11.10
2022-09-30T03:46:24.652Z,10.40
2022-09-30T03:48:57.160Z,10.18
2022-09-30T03:51:25.760Z,10.45
2022-09-30T03:53:54.072Z,11.75
2022-09-30T03:56:25.858Z,11.05
2022-09-30T03:58:53.223Z,12.40
2022-09-30T04:01:21.575Z,13.52
2022-09-30T04:03:52.207Z,12.25
2022-09-30T04:06:21.902Z,11.50
2022-09-30T04:08:50.245Z,11.25
2022-09-30T04:11:17.772Z,11.02
2022-09-30T04:13:45.320Z,11.63
2022-09-30T04:16:12.704Z,11.80
2022-09-30T04:18:40.428Z,11.82
2022-09-30T04:21:08.396Z,11.90
2022-09-30T04:23:38.066Z,11.13
2022-09-30T04:26:06.500Z,10.57
2022-09-30T04:28:34.186Z,10.20
2022-09-30T04:31:01.785Z,10.68
2022-09-30T04:33:29.488Z,10.57
2022-09-30T04:35:57.247Z,9.23
2022-09-30T04:38:25.292Z,9.70
2022-09-30T04:40:55.665Z,10.05
2022-09-30T04:43:23.800Z,10.52
2022-09-30T04:45:52.882Z,10.40
2022-09-30T04:48:22.104Z,11.27
2022-09-30T04:50:49.633Z,10.75
2022-09-30T04:53:17.836Z,9.98
2022-09-30T04:55:45.919Z,11.73
2022-09-30T04:58:15.093Z,12.32
2022-09-30T05:00:42.527Z,14.02
2022-09-30T05:03:11.034Z,12.50
2022-09-30T05:05:38.412Z,11.60
2022-09-30T05:08:06.761Z,11.40
2022-09-30T05:10:34.154Z,11.32
2022-09-30T05:13:01.547Z,10.95
2022-09-30T05:15:30.236Z,10.15
2022-09-30T05:17:57.587Z,11.85
2022-09-30T05:20:25.057Z,10.90
2022-09-30T05:22:56.034Z,10.88
2022-09-30T05:25:23.611Z,11.10
2022-09-30T05:27:51.241Z,11.35
2022-09-30T05:30:18.602Z,11.30
2022-09-30T05:32:47.269Z,11.40
2022-09-30T05:35:14.842Z,11.43
2022-09-30T05:37:42.896Z,10.85
2022-09-30T05:40:10.491Z,11.40
2022-09-30T05:42:37.856Z,14.93
2022-09-30T05:45:06.582Z,13.05
2022-09-30T05:47:34.093Z,12.70
2022-09-30T05:50:02.756Z,13.30
2022-09-30T05:52:30.307Z,56.15
2022-09-30T05:55:00.841Z,32.85
2022-09-30T05:57:28.465Z,19.20
2022-09-30T05:59:56.220Z,13.55
2022-09-30T06:02:23.639Z,13.65
2022-09-30T06:04:51.044Z,14.63
2022-09-30T06:07:19.698Z,14.63
2022-09-30T06:09:47.924Z,15.10
2022-09-30T06:12:15.997Z,15.73
2022-09-30T06:14:43.312Z,15.43
2022-09-30T06:17:10.650Z,13.90
2022-09-30T06:19:37.977Z,13.50
2022-09-30T06:22:05.303Z,12.48
2022-09-30T06:24:33.942Z,11.55
2022-09-30T06:27:01.587Z,10.48
2022-09-30T06:29:28.958Z,11.23
2022-09-30T06:31:56.344Z,10.40
2022-09-30T06:34:24.066Z,9.80
2022-09-30T06:36:51.399Z,9.57
2022-09-30T06:39:18.958Z,10.15
2022-09-30T06:41:47.827Z,9.75
2022-09-30T06:44:25.243Z,10.48
2022-09-30T06:46:54.398Z,10.45
2022-09-30T06:49:22.286Z,10.73
2022-09-30T06:51:51.266Z,9.65
2022-09-30T06:54:19.305Z,9.77
2022-09-30T06:56:49.264Z,10.27
2022-09-30T06:59:17.021Z,10.15
2022-09-30T07:01:45.071Z,9.88
2022-09-30T07:04:12.728Z,9.25
2022-09-30T07:06:41.441Z,9.38
2022-09-30T07:09:10.018Z,8.88
2022-09-30T07:11:38.188Z,9.55
2022-09-30T07:14:07.056Z,8.82
2022-09-30T07:16:34.741Z,8.20
2022-09-30T07:19:03.215Z,7.75
2022-09-30T07:21:31.501Z,7.97
2022-09-30T07:24:00.120Z,7.82
2022-09-30T07:26:28.002Z,8.70
2022-09-30T07:28:55.448Z,7.45
2022-09-30T07:31:34.943Z,7.65
2022-09-30T07:34:03.275Z,7.55
2022-09-30T07:36:33.628Z,7.97
2022-09-30T07:39:06.110Z,8.23
2022-09-30T07:41:36.342Z,8.30
2022-09-30T07:44:06.163Z,7.70
2022-09-30T07:46:38.517Z,7.93
2022-09-30T07:49:08.654Z,8.30
2022-09-30T07:51:37.560Z,8.13
2022-09-30T07:54:07.046Z,7.63
2022-09-30T07:57:05.087Z,8.48
2022-09-30T07:59:25.750Z,8.15
2022-09-30T08:01:54.418Z,8.07
2022-09-30T08:04:22.593Z,9.23
2022-09-30T08:06:51.670Z,9.05
2022-09-30T08:09:21.018Z,9.07
2022-09-30T08:11:48.681Z,8.85
2022-09-30T08:14:17.173Z,8.48
2022-09-30T08:16:44.631Z,8.50
2022-09-30T08:19:16.820Z,8.15
2022-09-30T08:21:44.824Z,7.90
2022-09-30T08:24:12.863Z,8.82
2022-09-30T08:26:40.398Z,9.00
2022-09-30T08:29:08.113Z,8.18
2022-09-30T08:31:35.567Z,9.02
2022-09-30T08:34:03.713Z,9.10
2022-09-30T08:36:32.379Z,9.05
2022-09-30T08:38:59.729Z,12.18
2022-09-30T08:41:53.743Z,10.52
2022-09-30T08:44:30.643Z,8.63
2022-09-30T08:47:03.163Z,9.93
2022-09-30T08:49:46.626Z,9.73
2022-09-30T08:52:30.136Z,9.95
2022-09-30T08:55:07.556Z,10.93
2022-09-30T08:57:38.123Z,9.70
2022-09-30T09:00:10.110Z,8.68
2022-09-30T09:02:43.847Z,9.77
2022-09-30T09:05:17.743Z,11.50
2022-09-30T09:07:53.008Z,9.32
2022-09-30T09:10:28.582Z,10.15
2022-09-30T09:13:00.235Z,9.15
2022-09-30T09:15:36.506Z,10.90
2022-09-30T09:18:23.997Z,8.63
2022-09-30T09:20:56.146Z,10.23
2022-09-30T09:23:26.020Z,9.00
2022-09-30T09:25:54.019Z,8.63
2022-09-30T09:28:28.714Z,8.95
2022-09-30T09:30:59.037Z,8.38
2022-09-30T09:33:29.839Z,8.90
2022-09-30T09:36:06.686Z,7.95
2022-09-30T09:38:41.004Z,8.13
2022-09-30T09:41:16.163Z,5.68
2022-09-30T09:43:52.114Z,7.75
2022-09-30T09:46:24.684Z,7.65
2022-09-30T09:49:12.835Z,6.68
2022-09-30T09:51:42.197Z,7.88
2022-09-30T09:54:13.177Z,8.30
2022-09-30T09:56:40.515Z,8.23
2022-09-30T09:59:13.234Z,7.20
2022-09-30T10:01:42.664Z,6.50
2022-09-30T10:04:15.498Z,7.15
2022-09-30T10:06:49.023Z,7.03
2022-09-30T10:09:34.936Z,6.00
2022-09-30T10:12:28.222Z,7.00
2022-09-30T10:15:01.729Z,5.13
2022-09-30T10:20:04.929Z,6.78
2022-09-30T10:22:33.154Z,7.28
2022-09-30T10:25:18.398Z,6.45
2022-09-30T10:27:51.877Z,6.78
2022-09-30T10:30:33.353Z,4.88
2022-09-30T10:33:03.474Z,4.20
2022-09-30T10:35:30.882Z,5.10
2022-09-30T10:37:59.580Z,5.60
2022-09-30T10:40:30.519Z,4.45
2022-09-30T10:42:58.314Z,3.70
2022-09-30T10:45:30.816Z,3.63
2022-09-30T10:47:59.964Z,4.72
2022-09-30T10:50:27.866Z,4.43
2022-09-30T10:52:57.714Z,4.15
2022-09-30T10:55:32.362Z,4.30
2022-09-30T10:58:04.481Z,4.30
2022-09-30T11:00:33.009Z,5.88
2022-09-30T11:03:04.805Z,4.13
2022-09-30T11:05:34.333Z,4.97
2022-09-30T11:08:04.670Z,4.30
2022-09-30T11:10:40.463Z,3.80
2022-09-30T11:13:11.959Z,3.00
2022-09-30T11:15:45.016Z,3.10
2022-09-30T11:18:16.684Z,3.35
2022-09-30T11:20:47.274Z,3.42
2022-09-30T11:23:20.551Z,3.30
2022-09-30T11:25:56.202Z,2.42
2022-09-30T11:28:42.739Z,3.70
2022-09-30T11:31:21.448Z,3.90
2022-09-30T11:33:59.712Z,4.50
2022-09-30T11:36:33.503Z,3.65
2022-09-30T11:39:20.790Z,3.65
2022-09-30T11:41:55.132Z,4.50
2022-09-30T11:44:28.152Z,3.67
2022-09-30T11:47:10.453Z,4.13
2022-09-30T11:49:55.845Z,3.92
2022-09-30T11:52:29.448Z,4.05
2022-09-30T11:55:12.999Z,3.90
2022-09-30T11:57:50.404Z,3.40
2022-09-30T12:00:19.945Z,3.10
2022-09-30T12:02:48.744Z,3.20
2022-09-30T12:05:20.649Z,3.40
2022-09-30T12:07:51.349Z,3.70
2022-09-30T12:10:22.284Z,3.75
2022-09-30T12:12:55.696Z,3.28
2022-09-30T12:17:58.987Z,2.97
2022-09-30T12:20:30.280Z,2.80
2022-09-30T12:23:02.766Z,3.40
2022-09-30T12:25:32.611Z,3.30
2022-09-30T12:28:26.888Z,2.60
2022-09-30T12:31:00.343Z,2.58
2022-09-30T12:33:36.113Z,3.17
2022-09-30T12:36:15.036Z,2.40
2022-09-30T12:39:26.898Z,2.58
2022-09-30T12:42:07.633Z,3.33
2022-09-30T12:44:51.201Z,3.10
2022-09-30T12:47:28.776Z,3.20
2022-09-30T12:49:57.573Z,2.70
2022-09-30T12:52:25.176Z,2.80
2022-09-30T12:54:54.944Z,2.72
2022-09-30T12:57:26.449Z,2.42
2022-09-30T12:59:56.736Z,2.60
2022-09-30T13:02:31.726Z,2.30
2022-09-30T13:05:43.794Z,2.67
2022-09-30T13:08:25.626Z,2.88
2022-09-30T13:10:59.192Z,2.33
2022-09-30T13:13:30.531Z,2.40
2022-09-30T13:16:03.425Z,2.47
2022-09-30T13:19:04.872Z,2.40
2022-09-30T13:21:32.463Z,2.40
2022-09-30T13:24:00.518Z,2.17
2022-09-30T13:26:43.044Z,2.40
2022-09-30T13:29:38.107Z,2.35
2022-09-30T13:32:11.348Z,2.35
2022-09-30T13:34:56.885Z,2.50
2022-09-30T13:37:37.753Z,2.30
2022-09-30T13:40:07.336Z,2.40
2022-09-30T13:42:41.872Z,2.65
2022-09-30T13:45:16.188Z,2.08
2022-09-30T13:47:46.828Z,2.83
2022-09-30T13:50:18.741Z,2.42
2022-09-30T13:52:48.810Z,2.30
2022-09-30T13:55:19.680Z,2.60
2022-09-30T13:58:01.457Z,2.38
2022-09-30T14:00:41.370Z,2.30
2022-09-30T14:03:23.821Z,2.13
2022-09-30T14:06:00.040Z,2.10
2022-09-30T14:09:05.648Z,2.50
2022-09-30T14:11:42.620Z,2.10
2022-09-30T14:14:26.769Z,1.98
2022-09-30T14:19:46.204Z,1.85
2022-09-30T14:22:15.163Z,2.20
2022-09-30T14:24:42.580Z,2.40
2022-09-30T14:27:21.088Z,1.88
2022-09-30T14:29:56.552Z,1.88
2022-09-30T14:32:28.987Z,2.13
2022-09-30T14:34:58.148Z,2.28
2022-09-30T14:37:28.180Z,2.40
2022-09-30T14:39:55.800Z,2.05
2022-09-30T14:42:29.548Z,1.80
2022-09-30T14:47:31.945Z,1.88
2022-09-30T14:50:01.047Z,2.28
2022-09-30T14:52:37.060Z,2.10
2022-09-30T14:55:05.266Z,1.88
2022-09-30T14:57:34.958Z,2.58
2022-09-30T15:00:23.208Z,2.00
2022-09-30T15:02:50.652Z,2.58
2022-09-30T15:05:19.388Z,5.07
2022-09-30T15:07:46.836Z,2.63
2022-09-30T15:10:23.215Z,2.40
2022-09-30T15:12:51.547Z,1.92
2022-09-30T15:15:28.192Z,2.30
2022-09-30T15:17:56.114Z,2.33
2022-09-30T15:20:31.167Z,2.40
2022-09-30T15:22:59.828Z,2.13
2022-09-30T15:25:27.365Z,2.38
2022-09-30T15:27:54.935Z,2.50
2022-09-30T15:30:25.117Z,3.10
2022-09-30T15:32:58.518Z,2.95
2022-09-30T15:35:27.456Z,3.35
2022-09-30T15:37:55.115Z,3.45
2022-09-30T15:40:41.780Z,3.80
2022-09-30T15:43:11.229Z,3.47
2022-09-30T15:45:40.970Z,3.38
2022-09-30T15:48:35.693Z,2.83
2022-09-30T15:51:24.727Z,2.50
2022-09-30T15:53:52.268Z,2.70
2022-09-30T15:56:25.533Z,2.80
2022-09-30T15:58:56.751Z,3.00
2022-09-30T16:01:26.736Z,2.33
2022-09-30T16:03:56.363Z,2.70
2022-09-30T16:06:28.162Z,2.72
2022-09-30T16:09:01.045Z,2.90
2022-09-30T16:11:31.443Z,2.60
2022-09-30T16:13:59.832Z,2.80
2022-09-30T16:16:29.299Z,2.60
2022-09-30T16:18:57.462Z,3.20
2022-09-30T16:21:44.071Z,2.85
2022-09-30T16:24:48.977Z,2.92
2022-09-30T16:27:22.352Z,2.97
2022-09-30T16:29:49.741Z,2.90
2022-09-30T16:32:17.084Z,2.67
2022-09-30T16:34:44.522Z,3.25
2022-09-30T16:37:14.682Z,3.10
2022-09-30T16:39:42.189Z,3.28
2022-09-30T16:42:13.719Z,3.13
2022-09-30T16:44:44.328Z,2.92
2022-09-30T16:47:16.327Z,3.33
2022-09-30T16:49:44.515Z,3.40
2022-09-30T16:52:13.425Z,4.63
2022-09-30T16:54:42.622Z,3.80
2022-09-30T16:57:13.168Z,4.53
2022-09-30T16:59:40.528Z,7.13
2022-09-30T17:02:13.621Z,7.32
2022-09-30T17:04:41.198Z,6.53
2022-09-30T17:07:14.360Z,6.65
2022-09-30T17:09:43.872Z,7.28
2022-09-30T17:12:12.701Z,6.60
2022-09-30T17:14:40.786Z,7.53
2022-09-30T17:17:13.025Z,7.40
2022-09-30T17:19:40.842Z,8.00
2022-09-30T17:22:08.192Z,7.75
2022-09-30T17:24:36.833Z,13.80
2022-09-30T17:27:04.331Z,26.20
2022-09-30T17:29:32.843Z,39.00
2022-09-30T17:32:00.763Z,35.22
2022-09-30T17:34:29.779Z,17.73
2022-09-30T17:36:57.211Z,17.52
2022-09-30T17:39:26.503Z,15.55
2022-09-30T17:42:12.989Z,16.40
2022-09-30T17:44:40.346Z,15.27
2022-09-30T17:47:07.695Z,16.55
2022-09-30T17:49:36.810Z,22.15
2022-09-30T17:52:05.333Z,22.73
2022-09-30T17:54:34.303Z,20.42
2022-09-30T17:57:02.950Z,17.75
2022-09-30T17:59:30.345Z,14.90
2022-09-30T18:01:57.832Z,13.40
2022-09-30T18:04:25.977Z,12.73
2022-09-30T18:06:54.346Z,12.57
2022-09-30T18:09:22.153Z,12.45
2022-09-30T18:11:49.602Z,13.70
2022-09-30T18:14:18.300Z,14.70
2022-09-30T18:16:45.774Z,13.63
2022-09-30T18:21:45.945Z,16.00
2022-09-30T18:24:13.535Z,16.98
2022-09-30T18:26:41.025Z,18.23
2022-09-30T18:29:08.897Z,16.90
2022-09-30T18:31:39.377Z,27.42
2022-09-30T18:34:07.368Z,21.30
2022-09-30T18:36:37.041Z,19.17
2022-09-30T18:39:04.598Z,18.88
2022-09-30T18:41:33.822Z,17.67
2022-09-30T18:44:03.242Z,18.48
2022-09-30T18:46:33.727Z,17.13
2022-09-30T18:49:02.422Z,18.70
2022-09-30T18:51:30.380Z,23.65
2022-09-30T18:54:00.372Z,20.95
2022-09-30T18:56:31.208Z,18.10
2022-09-30T18:58:58.634Z,18.55
2022-09-30T19:01:27.707Z,16.50
2022-09-30T19:03:55.184Z,13.82
2022-09-30T19:06:23.827Z,13.38
2022-09-30T19:08:51.177Z,13.75
2022-09-30T19:11:18.785Z,14.77
2022-09-30T19:13:47.817Z,15.27
2022-09-30T19:16:18.273Z,17.02
2022-09-30T19:18:46.729Z,16.52
2022-09-30T19:21:20.059Z,16.38
2022-09-30T19:23:49.142Z,20.17
2022-09-30T19:26:16.788Z,18.73
2022-09-30T19:28:44.124Z,18.38
2022-09-30T19:31:12.969Z,18.92
2022-09-30T19:33:50.433Z,24.52
2022-09-30T19:36:21.880Z,33.88
2022-09-30T19:38:52.263Z,37.85
2022-09-30T19:41:24.478Z,39.13
2022-09-30T19:43:51.906Z,34.38
2022-09-30T19:46:21.542Z,31.33
2022-09-30T19:48:48.983Z,25.40
2022-09-30T19:51:17.839Z,23.73
2022-09-30T19:54:01.852Z,20.27
2022-09-30T19:56:35.976Z,16.77
2022-09-30T19:59:03.960Z,14.68
2022-09-30T20:01:34.290Z,14.18
2022-09-30T20:04:04.690Z,17.30
2022-09-30T20:06:33.032Z,14.77
2022-09-30T20:09:02.895Z,14.63
2022-09-30T20:11:34.183Z,16.08
2022-09-30T20:14:20.899Z,14.38
2022-09-30T20:16:48.622Z,13.77
2022-09-30T20:19:16.325Z,15.50
2022-09-30T20:21:43.806Z,15.43
2022-09-30T20:24:12.567Z,16.35
2022-09-30T20:26:42.280Z,16.05
2022-09-30T20:29:10.462Z,18.88
2022-09-30T20:31:38.524Z,18.10
2022-09-30T20:34:05.997Z,18.67
2022-09-30T20:36:34.836Z,20.85
2022-09-30T20:39:03.813Z,24.25
2022-09-30T20:41:34.991Z,30.15
2022-09-30T20:44:04.366Z,23.30
2022-09-30T20:46:32.769Z,22.35
2022-09-30T20:49:00.444Z,19.30
2022-09-30T20:51:29.380Z,16.83
2022-09-30T20:53:58.151Z,18.83
2022-09-30T20:56:28.493Z,16.02
2022-09-30T20:59:00.175Z,14.63
2022-09-30T21:01:29.010Z,14.93
2022-09-30T21:03:56.505Z,14.55
2022-09-30T21:06:26.255Z,15.38
2022-09-30T21:08:54.116Z,17.38
2022-09-30T21:11:22.355Z,16.88
2022-09-30T21:13:51.890Z,17.08
2022-09-30T21:16:20.810Z,16.20
2022-09-30T21:18:50.614Z,16.30
2022-09-30T21:21:19.554Z,15.98
2022-09-30T21:23:46.897Z,15.43
2022-09-30T21:26:15.899Z,16.40
2022-09-30T21:28:48.696Z,16.35
2022-09-30T21:31:18.338Z,16.83
2022-09-30T21:33:45.978Z,16.67
2022-09-30T21:36:14.606Z,16.55
2022-09-30T21:38:42.633Z,16.42
2022-09-30T21:41:09.984Z,17.08
2022-09-30T21:43:38.246Z,17.17
2022-09-30T21:46:07.573Z,16.73
2022-09-30T21:48:35.087Z,16.50
2022-09-30T21:51:02.731Z,17.65
2022-09-30T21:53:31.965Z,17.33
2022-09-30T21:56:01.164Z,18.40
2022-09-30T21:58:30.319Z,19.15
2022-09-30T22:00:59.721Z,19.63
2022-09-30T22:03:29.145Z,37.80
2022-09-30T22:05:58.249Z,35.40
2022-09-30T22:08:26.413Z,31.58
2022-09-30T22:10:55.060Z,31.45
2022-09-30T22:13:22.396Z,29.58
2022-09-30T22:15:50.009Z,27.23
2022-09-30T22:18:18.508Z,25.67
2022-09-30T22:20:46.957Z,25.25
2022-09-30T22:23:15.056Z,22.60
2022-09-30T22:25:42.447Z,23.38
2022-09-30T22:28:11.142Z,23.75
2022-09-30T22:30:38.491Z,21.60
2022-09-30T22:33:23.513Z,26.52
2022-09-30T22:36:08.365Z,25.80
2022-09-30T22:38:36.387Z,27.08
2022-09-30T22:41:03.734Z,31.13
2022-09-30T22:43:34.281Z,27.42
2022-09-30T22:46:02.661Z,27.23
2022-09-30T22:48:30.380Z,23.17
2022-09-30T22:50:57.784Z,22.42
2022-09-30T22:53:25.484Z,27.13
2022-09-30T22:55:53.439Z,27.35
2022-09-30T22:58:20.939Z,30.50
2022-09-30T23:00:56.958Z,25.90
2022-09-30T23:03:25.346Z,23.90
2022-09-30T23:05:52.910Z,24.35
2022-09-30T23:08:20.292Z,22.95
2022-09-30T23:10:50.258Z,23.83
2022-09-30T23:13:20.114Z,21.98
2022-09-30T23:15:47.620Z,23.08
2022-09-30T23:18:17.050Z,22.83
2022-09-30T23:20:44.675Z,23.98
2022-09-30T23:23:12.003Z,23.90
2022-09-30T23:25:39.330Z,23.88
2022-09-30T23:28:06.735Z,27.08
2022-09-30T23:30:35.124Z,26.38
2022-09-30T23:33:02.452Z,25.42
2022-09-30T23:35:31.098Z,27.65
2022-09-30T23:37:58.423Z,25.90
2022-09-30T23:40:25.743Z,25.27
2022-09-30T23:42:55.157Z,25.15
2022-09-30T23:45:22.477Z,22.17
2022-09-30T23:47:49.844Z,21.50
2022-09-30T23:50:17.179Z,21.25
2022-09-30T23:52:45.824Z,21.65
2022-09-30T23:55:13.145Z,22.38
2022-09-30T23:57:40.499Z,23.63
